Time;durP1;ratioP1;P1;durP2;ratioP2;P2;SDS_P1;SDS_P2;PMS_P1;PMS_P2;Temp;Humidity;BMP_temperature;BMP_pressure;BME280_temperature;BME280_humidity;BME280_pressure;Samples;Min_cycle;Max_cycle;Signal;HPM_P1;HPM_P2
2024/03/16 00:00:38;;;;;;;53.60;31.40;;;;;;;6.93;97.90;100303.51;105494;1256;99630;-76
2024/03/16 00:03:43;;;;;;;53.50;30.70;;;;;;;6.91;97.91;100305.45;105507;1253;105455;-76
2024/03/16 00:06:29;;;;;;;55.80;30.30;;;;;;;6.90;97.89;100303.94;105614;1254;100400;-75
2024/03/16 00:09:14;;;;;;;50.60;28.30;;;;;;;6.89;97.89;100296.95;105572;1257;98471;-75
2024/03/16 00:12:00;;;;;;;52.40;29.60;;;;;;;6.88;97.89;100300.69;105557;1254;98612;-75
2024/03/16 00:14:48;;;;;;;56.10;31.50;;;;;;;6.86;97.85;100294.30;105521;1254;98487;-76
2024/03/16 00:17:33;;;;;;;51.60;29.00;;;;;;;6.85;97.78;100288.09;105591;1254;101474;-76
2024/03/16 00:20:19;;;;;;;52.90;31.10;;;;;;;6.84;98.05;100291.71;105513;1254;100028;-76
2024/03/16 00:23:04;;;;;;;58.70;31.10;;;;;;;6.84;98.05;100290.89;105485;1257;98881;-74
2024/03/16 00:25:50;;;;;;;51.60;30.00;;;;;;;6.83;98.06;100286.36;105512;1257;98088;-76
2024/03/16 00:28:36;;;;;;;56.00;30.90;;;;;;;6.82;98.11;100288.79;105523;1254;97985;-74
2024/03/16 00:31:21;;;;;;;58.10;30.60;;;;;;;6.81;98.35;100290.85;105532;1257;101356;-75
2024/03/16 00:34:08;;;;;;;50.70;29.00;;;;;;;6.80;98.24;100290.52;106026;1257;99237;-76
2024/03/16 00:36:53;;;;;;;57.50;31.10;;;;;;;6.80;98.39;100289.16;105517;1254;98451;-76
2024/03/16 00:39:40;;;;;;;53.50;30.40;;;;;;;6.81;98.71;100285.58;105458;1257;97956;-75
2024/03/16 00:42:25;;;;;;;55.10;30.30;;;;;;;6.81;98.97;100283.55;105519;1254;98492;-73
2024/03/16 00:45:11;;;;;;;55.70;31.70;;;;;;;6.82;99.01;100281.34;105469;1254;101335;-76
2024/03/16 00:47:56;;;;;;;60.20;31.30;;;;;;;6.82;99.09;100281.86;105601;1257;100055;-75
2024/03/16 00:50:41;;;;;;;56.40;32.80;;;;;;;6.81;98.92;100274.69;105636;1257;98752;-75
2024/03/16 00:53:27;;;;;;;60.80;32.60;;;;;;;6.80;99.01;100276.89;105421;1257;97982;-75
2024/03/16 00:56:12;;;;;;;58.80;31.80;;;;;;;6.79;99.12;100271.60;105547;1253;97955;-75
2024/03/16 00:58:58;;;;;;;53.20;30.40;;;;;;;6.76;99.09;100268.31;105537;1268;101385;-75
2024/03/16 01:01:44;;;;;;;53.90;30.40;;;;;;;6.75;98.97;100267.51;105396;1257;99223;-76
2024/03/16 01:04:30;;;;;;;53.40;30.00;;;;;;;6.75;98.82;100267.74;105563;1257;98608;-75
2024/03/16 01:07:16;;;;;;;52.00;29.40;;;;;;;6.73;98.88;100266.15;105505;1257;97970;-77
2024/03/16 01:10:02;;;;;;;53.00;28.00;;;;;;;6.72;98.94;100260.84;105444;1254;99372;-76
2024/03/16 01:12:47;;;;;;;52.10;28.60;;;;;;;6.70;98.98;100257.11;105503;1254;101406;-75
2024/03/16 01:15:32;;;;;;;55.70;29.90;;;;;;;6.69;99.01;100256.48;105373;1254;100485;-75
2024/03/16 01:18:18;;;;;;;54.10;30.20;;;;;;;6.69;98.88;100255.48;105424;1257;97977;-75
2024/03/16 01:21:05;;;;;;;54.70;29.70;;;;;;;6.68;98.94;100250.10;105633;1255;97990;-75
2024/03/16 01:23:51;;;;;;;52.60;29.00;;;;;;;6.66;99.04;100245.14;105528;1257;97912;-75
2024/03/16 01:26:36;;;;;;;57.90;29.80;;;;;;;6.64;99.04;100243.23;105523;1257;101346;-75
2024/03/16 01:29:21;;;;;;;52.30;30.60;;;;;;;6.61;99.07;100239.70;105532;1254;99087;-75
2024/03/16 01:32:08;;;;;;;56.60;29.60;;;;;;;6.59;99.02;100245.43;105549;1257;98592;-74
2024/03/16 01:34:54;;;;;;;56.60;30.80;;;;;;;6.57;99.05;100243.99;105608;1253;97881;-74
2024/03/16 01:37:39;;;;;;;50.00;28.60;;;;;;;6.56;99.10;100244.10;105539;1254;97893;-75
2024/03/16 01:40:25;;;;;;;49.90;28.40;;;;;;;6.55;99.05;100245.73;105558;1255;102584;-75
2024/03/16 01:43:12;;;;;;;51.90;29.40;;;;;;;6.52;98.97;100237.98;105580;1257;99148;-75
2024/03/16 01:45:57;;;;;;;46.80;26.70;;;;;;;6.51;98.99;100237.76;105545;1257;97987;-76
2024/03/16 01:48:42;;;;;;;51.90;28.40;;;;;;;6.50;99.09;100235.27;105492;1257;98441;-76
2024/03/16 01:51:30;;;;;;;51.10;29.10;;;;;;;6.48;99.15;100231.55;105534;1253;98387;-77
2024/03/16 01:54:16;;;;;;;50.90;29.30;;;;;;;6.47;99.26;100228.69;105472;1257;102522;-75
2024/03/16 01:57:02;;;;;;;48.70;27.80;;;;;;;6.45;99.17;100232.08;105367;1253;99154;-76
2024/03/16 01:59:50;;;;;;;50.00;27.80;;;;;;;6.42;99.28;100230.76;105431;1269;98969;-74
2024/03/16 02:02:36;;;;;;;50.30;27.90;;;;;;;6.40;99.34;100227.98;105480;1253;97954;-74
2024/03/16 02:05:22;;;;;;;51.20;28.00;;;;;;;6.38;99.21;100228.44;105444;1257;97960;-74
2024/03/16 02:08:08;;;;;;;49.30;28.10;;;;;;;6.35;99.23;100230.00;105236;1256;101311;-75
2024/03/16 02:10:54;;;;;;;49.80;27.70;;;;;;;6.32;99.31;100230.34;105516;1256;100319;-74
2024/03/16 02:13:40;;;;;;;50.50;29.00;;;;;;;6.29;99.50;100229.05;105498;1257;97936;-74
2024/03/16 02:16:25;;;;;;;56.00;29.40;;;;;;;6.28;99.46;100225.00;105407;1257;98000;-75
2024/03/16 02:19:10;;;;;;;49.20;27.90;;;;;;;6.25;99.59;100220.45;105475;1254;97875;-75
2024/03/16 02:21:56;;;;;;;47.90;28.00;;;;;;;6.24;99.68;100221.30;105470;1257;102591;-76
2024/03/16 02:24:45;;;;;;;49.60;28.40;;;;;;;6.22;99.80;100224.64;105476;1254;100207;-76
2024/03/16 02:27:32;;;;;;;52.60;29.00;;;;;;;6.20;99.88;100223.98;105296;1254;195973;-76
2024/03/16 02:30:17;;;;;;;51.80;28.90;;;;;;;6.19;99.88;100221.52;105548;1257;97968;-76
2024/03/16 02:33:07;;;;;;;55.80;30.90;;;;;;;6.18;99.95;100217.19;105621;1257;97964;-76
2024/03/16 02:35:54;;;;;;;59.60;32.00;;;;;;;6.16;99.96;100222.27;105482;1257;101364;-76
2024/03/16 02:38:40;;;;;;;51.30;30.00;;;;;;;6.15;99.99;100218.68;105430;1259;100336;-76
2024/03/16 02:41:25;;;;;;;56.80;30.70;;;;;;;6.15;99.99;100223.70;105423;1270;97967;-76
2024/03/16 02:44:10;;;;;;;54.00;30.50;;;;;;;6.14;99.93;100222.74;105468;1259;97967;-75
2024/03/16 02:46:57;;;;;;;53.90;31.40;;;;;;;6.12;99.98;100225.14;105496;1256;97986;-76
2024/03/16 02:49:42;;;;;;;54.80;30.00;;;;;;;6.11;99.96;100230.89;105609;1258;101367;-76
2024/03/16 02:52:27;;;;;;;55.00;30.40;;;;;;;6.08;100.00;100229.84;105428;1257;99109;-76
2024/03/16 02:55:13;;;;;;;51.70;28.90;;;;;;;6.05;99.97;100228.27;105426;1253;98085;-76
2024/03/16 02:57:59;;;;;;;53.60;29.00;;;;;;;6.04;99.98;100225.41;105459;1257;97971;-76
2024/03/16 03:00:44;;;;;;;45.80;27.20;;;;;;;6.03;100.00;100222.02;105455;1253;99268;-76
2024/03/16 03:03:30;;;;;;;51.30;28.40;;;;;;;6.01;100.00;100217.93;105510;1256;102121;-76
2024/03/16 03:06:15;;;;;;;51.50;28.80;;;;;;;6.00;100.00;100219.66;105551;1254;99217;-75
2024/03/16 03:09:01;;;;;;;50.30;29.40;;;;;;;6.00;100.00;100219.30;105533;1256;99113;-76
2024/03/16 03:11:46;;;;;;;55.70;29.70;;;;;;;6.01;100.00;100220.46;105333;1259;99284;-75
2024/03/16 03:14:32;;;;;;;49.80;29.00;;;;;;;6.01;100.00;100214.94;105574;1259;97887;-76
2024/03/16 03:17:17;;;;;;;49.50;28.80;;;;;;;6.02;100.00;100214.54;105479;1253;102594;-75
2024/03/16 03:20:05;;;;;;;57.60;30.30;;;;;;;6.02;100.00;100217.80;105454;1254;100303;-75
2024/03/16 03:22:51;;;;;;;51.30;29.20;;;;;;;6.04;100.00;100217.31;105483;1257;97985;-76
2024/03/16 03:25:36;;;;;;;52.20;30.40;;;;;;;6.05;100.00;100222.48;105574;1253;97948;-76
2024/03/16 03:28:21;;;;;;;52.80;28.80;;;;;;;6.06;100.00;100222.90;105522;1257;99600;-76
2024/03/16 03:31:10;;;;;;;57.50;30.80;;;;;;;6.07;100.00;100218.70;105502;1254;101348;-76
2024/03/16 03:33:55;;;;;;;51.10;28.70;;;;;;;6.09;100.00;100213.70;105455;1253;99716;-75
2024/03/16 03:36:44;;;;;;;53.70;30.50;;;;;;;6.11;100.00;100215.14;105435;1257;98302;-76
2024/03/16 03:39:29;;;;;;;47.40;26.90;;;;;;;6.11;100.00;100215.95;105506;1254;97966;-76
2024/03/16 03:42:14;;;;;;;49.50;28.70;;;;;;;6.12;100.00;100210.56;105583;1253;98467;-75
2024/03/16 03:45:10;;;;;;;53.70;30.40;;;;;;;6.12;100.00;100208.77;105483;1255;102593;-75
2024/03/16 03:48:24;;;;;;;52.60;28.50;;;;;;;6.11;100.00;100210.45;105608;1256;99396;-76
2024/03/16 03:51:10;;;;;;;52.90;27.60;;;;;;;6.10;100.00;100207.23;105611;1253;98921;-76
2024/03/16 03:53:57;;;;;;;54.50;30.00;;;;;;;6.11;100.00;100204.30;105659;1254;98802;-75
2024/03/16 03:56:43;;;;;;;54.40;28.20;;;;;;;6.12;100.00;100202.94;105475;1253;98490;-74
2024/03/16 03:59:28;;;;;;;55.20;29.90;;;;;;;6.14;100.00;100205.52;105608;1253;102745;-75
2024/03/16 04:02:14;;;;;;;48.90;28.10;;;;;;;6.16;100.00;100206.19;105511;1253;100225;-74
2024/03/16 04:04:59;;;;;;;50.80;29.20;;;;;;;6.17;100.00;100205.73;105463;1256;98003;-75
2024/03/16 04:07:45;;;;;;;50.90;28.20;;;;;;;6.19;100.00;100206.39;105507;1253;97913;-75
2024/03/16 04:10:30;;;;;;;48.30;28.60;;;;;;;6.22;100.00;100206.61;105506;1256;98601;-76
2024/03/16 04:13:16;;;;;;;51.90;28.90;;;;;;;6.24;100.00;100207.86;105527;1257;102564;-76
2024/03/16 04:16:02;;;;;;;52.60;29.00;;;;;;;6.26;100.00;100211.01;105506;1253;99138;-75
2024/03/16 04:18:48;;;;;;;49.90;28.90;;;;;;;6.27;100.00;100210.86;105458;1253;98061;-75
2024/03/16 04:21:33;;;;;;;55.90;29.40;;;;;;;6.28;100.00;100211.10;105477;1254;98616;-75
2024/03/16 04:24:19;;;;;;;57.30;31.30;;;;;;;6.29;100.00;100212.93;105393;1259;98416;-75
2024/03/16 04:27:04;;;;;;;54.80;29.70;;;;;;;6.28;100.00;100209.11;105504;1254;101371;-75
2024/03/16 04:29:50;;;;;;;54.90;29.50;;;;;;;6.29;100.00;100213.30;105433;1256;99909;-75
2024/03/16 04:32:35;;;;;;;50.70;29.80;;;;;;;6.29;100.00;100214.96;105411;1257;99008;-75
2024/03/16 04:35:20;;;;;;;50.80;29.20;;;;;;;6.27;100.00;100214.89;105393;1255;98175;-75
2024/03/16 04:38:09;;;;;;;51.80;29.60;;;;;;;6.27;100.00;100213.86;105552;1254;98475;-74
2024/03/16 04:40:55;;;;;;;51.90;28.60;;;;;;;6.28;100.00;100214.16;105468;1257;101339;-75
2024/03/16 04:43:41;;;;;;;48.50;27.10;;;;;;;6.28;100.00;100216.98;108589;1253;99986;-77
2024/03/16 04:46:32;;;;;;;47.00;26.20;;;;;;;6.27;100.00;100219.23;106064;1257;98265;-76
2024/03/16 04:49:17;;;;;;;;;;;;;;;6.25;100.00;100219.24;105472;1254;97990;-78
2024/03/16 04:52:03;;;;;;;45.30;25.10;;;;;;;6.23;100.00;100217.29;105503;1257;99316;-75
2024/03/16 04:54:48;;;;;;;50.90;29.30;;;;;;;6.23;100.00;100215.83;105485;1258;101475;-74
2024/03/16 04:57:34;;;;;;;52.80;30.00;;;;;;;6.25;100.00;100213.77;105523;1257;100215;-76
2024/03/16 05:00:19;;;;;;;52.80;31.00;;;;;;;6.25;100.00;100216.35;105588;1257;99273;-74
2024/03/16 05:03:05;;;;;;;48.00;28.50;;;;;;;6.26;100.00;100213.42;105512;1257;97916;-74
2024/03/16 05:05:51;;;;;;;56.80;31.40;;;;;;;6.28;100.00;100214.52;105538;1257;97794;-75
2024/03/16 05:08:37;;;;;;;51.20;29.50;;;;;;;6.30;100.00;100213.42;105480;1257;101314;-74
2024/03/16 05:11:23;;;;;;;52.70;30.80;;;;;;;6.32;100.00;100213.49;105483;1257;99083;-76
2024/03/16 05:14:09;;;;;;;59.70;32.00;;;;;;;6.35;100.00;100214.45;105568;1257;98209;-75
2024/03/16 05:16:55;;;;;;;61.20;32.50;;;;;;;6.36;100.00;100215.88;105496;1253;98715;-76
2024/03/16 05:19:40;;;;;;;55.30;29.80;;;;;;;6.38;100.00;100218.30;105617;1257;98081;-76
2024/03/16 05:22:26;;;;;;;55.90;31.40;;;;;;;6.41;100.00;100220.86;105661;1257;102593;-75
2024/03/16 05:25:11;;;;;;;55.30;32.20;;;;;;;6.43;100.00;100220.75;105393;1270;99078;-77
2024/03/16 05:27:58;;;;;;;48.70;29.00;;;;;;;6.46;100.00;100223.15;105450;1253;98051;-75
2024/03/16 05:30:43;;;;;;;53.30;29.40;;;;;;;6.48;100.00;100220.73;105506;1256;98659;-75
2024/03/16 05:33:28;;;;;;;54.80;30.40;;;;;;;6.51;100.00;100226.77;105528;1257;99059;-75
2024/03/16 05:36:15;;;;;;;56.80;30.10;;;;;;;6.55;100.00;100226.20;105657;1253;102632;-75
2024/03/16 05:39:00;;;;;;;56.60;30.20;;;;;;;6.58;100.00;100226.41;105417;1259;100629;-74
2024/03/16 05:41:45;;;;;;;50.30;28.30;;;;;;;6.61;100.00;100227.39;105476;1260;99007;-74
2024/03/16 05:44:31;;;;;;;52.70;29.10;;;;;;;6.66;100.00;100228.11;105572;1253;98066;-74
2024/03/16 05:47:21;;;;;;;51.50;30.50;;;;;;;6.71;100.00;100228.14;105568;1254;99723;-75
2024/03/16 05:50:07;;;;;;;52.80;28.60;;;;;;;6.76;100.00;100230.37;105493;1253;101526;-75
2024/03/16 05:52:52;;;;;;;49.40;28.60;;;;;;;6.81;100.00;100227.27;105492;1256;100336;-75
2024/03/16 05:55:38;;;;;;;53.70;31.10;;;;;;;6.87;100.00;100226.26;105446;1256;99548;-74
2024/03/16 05:58:24;;;;;;;52.50;28.90;;;;;;;6.92;100.00;100226.20;105463;1253;97946;-75
2024/03/16 06:01:09;;;;;;;49.70;29.60;;;;;;;6.99;100.00;100225.44;105527;1253;98492;-76
2024/03/16 06:03:55;;;;;;;59.40;30.60;;;;;;;7.05;100.00;100224.18;105395;1259;102036;-75
2024/03/16 06:06:40;;;;;;;55.50;31.20;;;;;;;7.11;100.00;100222.12;105465;1257;99120;-75
2024/03/16 06:09:26;;;;;;;54.20;29.90;;;;;;;7.16;100.00;100223.09;105466;1257;98013;-75
2024/03/16 06:12:12;;;;;;;58.00;31.50;;;;;;;7.22;100.00;100224.56;105474;1257;98070;-75
2024/03/16 06:14:57;;;;;;;54.00;29.10;;;;;;;7.27;100.00;100222.70;105537;1256;98508;-75
2024/03/16 06:17:43;;;;;;;53.40;30.90;;;;;;;7.33;100.00;100223.30;105508;1253;102298;-75
2024/03/16 06:20:29;;;;;;;50.40;29.00;;;;;;;7.38;100.00;100224.81;105454;1257;100393;-75
2024/03/16 06:23:14;;;;;;;51.80;31.00;;;;;;;7.44;100.00;100223.48;105595;1257;97901;-75
2024/03/16 06:26:03;;;;;;;56.50;31.40;;;;;;;7.49;100.00;100225.15;105651;1254;99024;-75
2024/03/16 06:29:02;;;;;;;51.10;31.60;;;;;;;7.55;100.00;100225.21;105633;1257;98471;-75
2024/03/16 06:31:50;;;;;;;56.10;30.60;;;;;;;7.60;100.00;100223.48;105605;1258;102717;-76
2024/03/16 06:34:35;;;;;;;58.90;32.40;;;;;;;7.65;100.00;100225.17;105608;1257;99085;-75
2024/03/16 06:37:21;;;;;;;52.90;30.50;;;;;;;7.71;100.00;100230.04;105662;1257;98083;-76
2024/03/16 06:40:07;;;;;;;51.70;31.20;;;;;;;7.76;100.00;100232.27;105465;1253;98030;-74
2024/03/16 06:42:52;;;;;;;50.80;30.00;;;;;;;7.82;100.00;100236.46;105478;1258;98424;-75
2024/03/16 06:45:37;;;;;;;52.20;30.90;;;;;;;7.86;100.00;100238.59;105466;1253;102614;-75
2024/03/16 06:48:23;;;;;;;52.90;31.50;;;;;;;7.91;100.00;100242.98;105608;1257;100165;-74
2024/03/16 06:51:08;;;;;;;55.60;33.00;;;;;;;7.96;100.00;100244.77;105376;1257;98777;-76
2024/03/16 06:53:54;;;;;;;50.80;29.90;;;;;;;8.01;100.00;100251.12;105382;1259;98076;-75
2024/03/16 06:56:39;;;;;;;52.00;30.80;;;;;;;8.06;100.00;100255.31;105686;1267;98088;-75
2024/03/16 06:59:25;;;;;;;48.60;29.00;;;;;;;8.11;100.00;100257.36;105477;1257;101934;-76
2024/03/16 07:02:10;;;;;;;55.20;32.30;;;;;;;8.15;100.00;100261.46;105492;1257;99119;-77
2024/03/16 07:04:56;;;;;;;57.30;30.30;;;;;;;8.19;100.00;100265.80;105453;1253;98165;-78
2024/03/16 07:07:41;;;;;;;54.80;30.50;;;;;;;8.23;100.00;100270.34;105463;1253;98543;-76
2024/03/16 07:10:27;;;;;;;54.10;31.30;;;;;;;8.26;100.00;100273.34;105577;1257;98482;-77
2024/03/16 07:13:12;;;;;;;47.40;29.60;;;;;;;8.31;100.00;100274.08;105498;1260;101318;-75
2024/03/16 07:15:58;;;;;;;48.50;29.80;;;;;;;8.35;100.00;100275.18;105534;1257;100314;-76
2024/03/16 07:18:44;;;;;;;44.70;27.20;;;;;;;8.40;100.00;100273.69;105580;1257;99104;-78
2024/03/16 07:21:29;;;;;;;49.30;27.70;;;;;;;8.43;100.00;100273.39;105630;1257;97869;-75
2024/03/16 07:24:15;;;;;;;43.80;26.40;;;;;;;8.48;100.00;100273.38;105591;1257;98517;-79
2024/03/16 07:27:00;;;;;;;42.30;26.00;;;;;;;8.52;100.00;100276.08;105363;1259;102015;-75
2024/03/16 07:29:46;;;;;;;45.10;25.70;;;;;;;8.57;100.00;100276.23;105516;1259;100066;-78
2024/03/16 07:32:31;;;;;;;49.20;27.60;;;;;;;8.62;100.00;100277.70;105614;1257;98000;-75
2024/03/16 07:35:17;;;;;;;46.30;25.90;;;;;;;8.66;100.00;100277.89;105525;1259;99138;-75
2024/03/16 07:38:02;;;;;;;47.20;27.30;;;;;;;8.70;100.00;100276.27;105536;1253;98462;-76
2024/03/16 07:40:48;;;;;;;47.60;28.20;;;;;;;8.75;100.00;100277.29;105510;1257;101319;-74
2024/03/16 07:43:33;;;;;;;45.50;26.10;;;;;;;8.80;100.00;100280.11;105461;1253;99969;-77
2024/03/16 07:46:21;;;;;;;43.90;24.90;;;;;;;8.84;100.00;100279.45;105406;1257;98978;-75
2024/03/16 07:49:07;;;;;;;45.60;26.40;;;;;;;8.88;100.00;100275.15;105377;1257;98023;-76
2024/03/16 07:51:52;;;;;;;42.90;25.20;;;;;;;8.91;100.00;100277.32;105491;1259;98418;-77
2024/03/16 07:54:38;;;;;;;39.00;25.60;;;;;;;8.94;100.00;100279.04;105586;1253;102629;-76
2024/03/16 07:57:24;;;;;;;40.40;24.40;;;;;;;8.97;100.00;100278.39;105726;1253;99046;-76
2024/03/16 08:00:11;;;;;;;37.80;22.90;;;;;;;8.99;100.00;100276.66;105574;1259;97971;-76
2024/03/16 08:03:00;;;;;;;39.50;22.90;;;;;;;9.03;100.00;100281.92;105514;1254;98026;-77
2024/03/16 08:05:46;;;;;;;39.20;23.50;;;;;;;9.06;100.00;100285.09;105599;1253;97896;-77
2024/03/16 08:08:33;;;;;;;38.70;23.30;;;;;;;9.09;100.00;100280.11;105590;1259;101370;-77
2024/03/16 08:11:19;;;;;;;37.80;23.60;;;;;;;9.12;100.00;100275.98;105500;1257;100332;-76
2024/03/16 08:14:05;;;;;;;35.50;23.30;;;;;;;9.15;100.00;100278.31;105474;1253;98603;-75
2024/03/16 08:16:52;;;;;;;39.90;23.90;;;;;;;9.18;100.00;100282.88;105443;1259;98018;-80
2024/03/16 08:19:38;;;;;;;37.70;22.20;;;;;;;9.21;100.00;100282.64;105353;1254;98025;-76
2024/03/16 08:22:24;;;;;;;39.30;22.30;;;;;;;9.26;100.00;100284.23;105484;1258;101325;-78
2024/03/16 08:25:12;;;;;;;40.10;24.70;;;;;;;9.30;100.00;100286.88;105450;1253;99050;-76
2024/03/16 08:27:57;;;;;;;46.40;27.60;;;;;;;9.36;100.00;100288.34;105549;1253;98039;-77
2024/03/16 08:30:43;;;;;;;46.70;28.30;;;;;;;9.42;100.00;100289.81;105439;1254;98081;-77
2024/03/16 08:33:28;;;;;;;40.60;27.00;;;;;;;9.47;100.00;100290.03;105431;1253;100336;-75
2024/03/16 08:36:15;;;;;;;43.60;26.60;;;;;;;9.53;100.00;100293.80;105312;1254;102707;-76
2024/03/16 08:39:03;;;;;;;40.90;26.20;;;;;;;9.58;100.00;100293.50;105470;1259;99160;-77
2024/03/16 08:41:48;;;;;;;43.90;25.40;;;;;;;9.63;100.00;100294.64;105484;1257;98772;-78
2024/03/16 08:44:34;;;;;;;41.40;24.70;;;;;;;9.69;100.00;100294.64;105460;1254;97997;-77
2024/03/16 08:47:21;;;;;;;35.70;23.40;;;;;;;9.75;100.00;100293.54;105493;1259;98464;-78
2024/03/16 08:50:09;;;;;;;38.90;24.50;;;;;;;9.83;100.00;100290.91;105485;1253;101381;-75
2024/03/16 08:52:54;;;;;;;38.70;24.10;;;;;;;9.92;100.00;100287.18;105555;1258;100824;-77
2024/03/16 08:55:40;;;;;;;40.40;24.20;;;;;;;10.02;100.00;100285.20;105402;1259;98977;-75
2024/03/16 08:58:25;;;;;;;37.90;23.60;;;;;;;10.12;100.00;100284.97;105527;1259;97913;-75
2024/03/16 09:01:10;;;;;;;37.50;23.50;;;;;;;10.20;100.00;100283.77;105386;1259;98377;-76
2024/03/16 09:03:56;;;;;;;37.40;23.20;;;;;;;10.28;100.00;100279.23;105390;1272;101335;-78
2024/03/16 09:06:41;;;;;;;37.50;23.30;;;;;;;10.34;100.00;100278.56;105530;1258;100375;-76
2024/03/16 09:09:27;;;;;;;40.10;24.30;;;;;;;10.40;100.00;100273.70;105459;1257;99075;-77
2024/03/16 09:12:12;;;;;;;35.30;23.70;;;;;;;10.47;100.00;100269.40;105447;1258;98081;-77
2024/03/16 09:14:57;;;;;;;37.50;24.10;;;;;;;10.55;100.00;100275.02;105250;1254;98622;-75
2024/03/16 09:17:43;;;;;;;39.80;23.50;;;;;;;10.62;100.00;100277.22;105597;1259;102690;-75
2024/03/16 09:20:28;;;;;;;35.40;24.70;;;;;;;10.71;100.00;100276.34;105495;1253;100520;-76
2024/03/16 09:23:16;;;;;;;41.50;26.00;;;;;;;10.80;100.00;100276.06;105505;1253;99308;-74
2024/03/16 09:26:03;;;;;;;39.60;25.20;;;;;;;10.90;100.00;100277.05;105472;1259;97893;-76
2024/03/16 09:28:49;;;;;;;40.10;27.10;;;;;;;10.98;100.00;100280.80;105457;1254;98499;-74
2024/03/16 09:31:35;;;;;;;39.00;27.40;;;;;;;11.05;100.00;100285.33;105402;1253;101890;-75
2024/03/16 09:34:21;;;;;;;36.40;25.90;;;;;;;11.11;100.00;100281.38;105363;1259;99061;-77
2024/03/16 09:37:06;;;;;;;44.20;29.10;;;;;;;11.16;100.00;100282.48;105403;1259;98601;-76
2024/03/16 09:39:52;;;;;;;46.70;29.70;;;;;;;11.21;100.00;100281.92;105458;1255;99128;-76
2024/03/16 09:42:37;;;;;;;42.40;27.80;;;;;;;11.28;100.00;100280.36;105551;1254;99519;-77
2024/03/16 09:45:23;;;;;;;38.40;26.20;;;;;;;11.33;100.00;100276.92;105391;1259;101355;-74
2024/03/16 09:48:12;;;;;;;35.10;24.20;;;;;;;11.40;100.00;100279.46;105455;1259;100350;-75
2024/03/16 09:50:58;;;;;;;34.80;23.10;;;;;;;11.47;100.00;100278.37;105410;1253;98260;-74
2024/03/16 09:53:45;;;;;;;33.00;22.70;;;;;;;11.55;100.00;100278.99;105479;1254;98084;-74
2024/03/16 09:56:31;;;;;;;34.30;23.80;;;;;;;11.63;100.00;100282.27;105426;1259;97772;-75
2024/03/16 09:59:17;;;;;;;32.70;23.30;;;;;;;11.70;100.00;100283.20;105371;1259;101379;-74
2024/03/16 10:02:12;;;;;;;31.90;22.40;;;;;;;11.76;100.00;100279.59;105356;1259;99866;-75
2024/03/16 10:04:57;;;;;;;31.20;22.40;;;;;;;11.81;100.00;100277.80;105420;1254;98894;-75
2024/03/16 10:07:46;;;;;;;31.20;23.20;;;;;;;11.89;100.00;100271.32;105450;1253;98356;-75
2024/03/16 10:10:31;;;;;;;34.50;24.00;;;;;;;12.01;100.00;100267.21;105488;1259;99117;-75
2024/03/16 10:13:17;;;;;;;33.20;21.60;;;;;;;12.14;100.00;100262.40;105429;1258;101358;-76
2024/03/16 10:16:06;;;;;;;31.20;23.50;;;;;;;12.29;100.00;100265.55;105463;1259;99083;-76
2024/03/16 10:18:53;;;;;;;31.10;20.70;;;;;;;12.42;100.00;100267.45;105364;1259;99029;-77
2024/03/16 10:21:41;;;;;;;31.60;21.70;;;;;;;12.53;100.00;100263.54;105427;1270;97942;-76
2024/03/16 10:24:26;;;;;;;32.70;20.80;;;;;;;12.65;100.00;100259.96;105535;1254;98437;-74
2024/03/16 10:27:12;;;;;;;28.70;20.30;;;;;;;12.75;100.00;100257.89;105487;1259;101374;-76
2024/03/16 10:29:57;;;;;;;29.90;22.00;;;;;;;12.83;100.00;100259.82;105465;1256;100425;-76
2024/03/16 10:32:49;;;;;;;34.00;24.10;;;;;;;12.90;100.00;100261.83;105428;1261;98615;-77
2024/03/16 10:35:34;;;;;;;31.70;21.40;;;;;;;12.95;100.00;100260.54;105289;1262;98053;-76
2024/03/16 10:38:23;;;;;;;36.60;20.50;;;;;;;13.01;100.00;100263.34;105372;1259;98393;-74
2024/03/16 10:41:11;;;;;;;27.20;19.80;;;;;;;13.08;100.00;100258.75;105485;1259;101360;-76
2024/03/16 10:44:00;;;;;;;26.50;20.20;;;;;;;13.20;100.00;100257.11;105482;1259;100780;-74
2024/03/16 10:46:46;;;;;;;27.20;19.30;;;;;;;13.32;100.00;100257.79;105467;1254;97946;-76
2024/03/16 10:49:31;;;;;;;59.40;34.10;;;;;;;13.42;100.00;100256.16;105424;1254;98026;-75
2024/03/16 10:52:18;;;;;;;61.00;27.00;;;;;;;13.53;100.00;100260.21;105490;1258;98474;-76
2024/03/16 10:55:07;;;;;;;31.50;21.40;;;;;;;13.62;100.00;100257.06;105434;1259;101326;-77
2024/03/16 10:57:54;;;;;;;27.80;19.30;;;;;;;13.79;100.00;100261.95;105437;1254;99082;-75
2024/03/16 11:00:44;;;;;;;22.80;17.30;;;;;;;13.96;100.00;100252.65;105363;1259;99444;-76
2024/03/16 11:03:35;;;;;;;22.30;19.00;;;;;;;14.10;100.00;100251.31;105468;1259;98009;-74
2024/03/16 11:06:23;;;;;;;;;;;;;;;14.22;100.00;100248.27;105584;1259;97993;-75
2024/03/16 11:09:32;;;;;;;21.00;16.30;;;;;;;14.30;100.00;100251.89;105471;1272;102582;-75
2024/03/16 11:12:31;;;;;;;21.30;16.40;;;;;;;14.37;100.00;100249.27;105628;1258;99435;-75
2024/03/16 11:15:38;;;;;;;22.60;16.80;;;;;;;14.43;100.00;100247.98;105408;1258;97973;-74
2024/03/16 11:18:23;;;;;;;21.60;15.60;;;;;;;14.53;100.00;100244.08;105615;1259;99145;-75
2024/03/16 11:21:14;;;;;;;19.60;14.00;;;;;;;14.64;100.00;100241.90;105445;1259;98041;-76
2024/03/16 11:24:03;;;;;;;19.10;13.00;;;;;;;14.69;100.00;100246.67;105480;1259;101408;-77
2024/03/16 11:26:49;;;;;;;15.90;12.50;;;;;;;14.71;100.00;100244.49;107252;1254;100272;-83
2024/03/16 11:29:58;;;;;;;17.40;12.40;;;;;;;14.71;100.00;100247.40;106395;1253;98067;-83
2024/03/16 11:32:44;;;;;;;18.20;13.90;;;;;;;14.71;100.00;100243.09;106120;1259;97893;-81
2024/03/16 11:35:30;;;;;;;19.90;12.90;;;;;;;14.73;100.00;100243.73;105639;1253;97907;-78
2024/03/16 11:38:16;;;;;;;19.40;13.20;;;;;;;14.71;100.00;100243.38;105585;1254;101328;-78
2024/03/16 11:41:02;;;;;;;15.10;10.80;;;;;;;14.69;100.00;100243.81;105555;1254;99152;-79
2024/03/16 11:43:48;;;;;;;11.20;9.00;;;;;;;14.68;100.00;100242.41;105683;1257;98713;-78
2024/03/16 11:46:34;;;;;;;14.00;9.90;;;;;;;14.67;100.00;100240.83;105460;1259;98524;-79
2024/03/16 11:49:21;;;;;;;15.00;9.50;;;;;;;14.68;100.00;100237.19;105580;1258;98205;-77
2024/03/16 11:52:06;;;;;;;14.50;10.40;;;;;;;14.68;100.00;100238.27;105508;1254;101358;-78
2024/03/16 11:54:52;;;;;;;11.80;9.30;;;;;;;14.67;100.00;100240.45;105516;1259;100355;-76
2024/03/16 11:57:37;;;;;;;12.50;9.10;;;;;;;14.71;100.00;100236.79;105475;1254;97916;-78
2024/03/16 12:00:23;;;;;;;10.50;8.50;;;;;;;14.76;100.00;100237.27;105537;1259;98023;-77
2024/03/16 12:03:09;;;;;;;10.30;7.90;;;;;;;14.81;100.00;100233.17;105569;1254;97880;-76
2024/03/16 12:05:56;;;;;;;10.90;8.80;;;;;;;14.84;100.00;100229.96;105580;1259;102044;-76
2024/03/16 12:08:41;;;;;;;9.90;8.50;;;;;;;14.85;100.00;100231.08;105810;1254;99414;-78
2024/03/16 12:11:28;;;;;;;12.00;8.70;;;;;;;14.86;100.00;100231.70;105484;1253;97960;-77
2024/03/16 12:14:17;;;;;;;9.60;7.30;;;;;;;14.86;100.00;100233.86;105694;1258;97911;-79
2024/03/16 12:17:04;;;;;;;9.60;7.80;;;;;;;14.85;100.00;100233.98;105559;1260;98498;-78
2024/03/16 12:19:50;;;;;;;10.10;7.40;;;;;;;14.85;100.00;100228.17;105436;1259;101358;-78
2024/03/16 12:22:55;;;;;;;10.20;7.40;;;;;;;14.87;100.00;100228.70;105577;1254;99249;-77
2024/03/16 12:25:41;;;;;;;10.20;7.70;;;;;;;14.87;100.00;100228.29;105371;1259;99146;-78